createdAt,value
2023-01-12T00:02:19.646Z,10.20
2023-01-12T00:04:46.539Z,10.20
2023-01-12T00:07:16.633Z,10.20
2023-01-12T00:09:45.600Z,10.20
2023-01-12T00:12:15.096Z,10.20
2023-01-12T00:14:41.912Z,10.20
2023-01-12T00:17:09.187Z,10.30
2023-01-12T00:19:38.743Z,10.30
2023-01-12T00:22:11.766Z,10.30
2023-01-12T00:24:44.470Z,10.30
2023-01-12T00:27:15.365Z,10.30
2023-01-12T00:29:44.564Z,10.30
2023-01-12T00:32:19.605Z,10.40
2023-01-12T00:34:49.189Z,10.40
2023-01-12T00:37:16.065Z,10.40
2023-01-12T00:40:00.930Z,10.40
2023-01-12T00:42:47.010Z,10.50
2023-01-12T00:45:26.045Z,10.50
2023-01-12T00:47:53.773Z,10.50
2023-01-12T00:50:20.723Z,10.50
2023-01-12T00:52:49.683Z,10.50
2023-01-12T00:55:16.511Z,10.50
2023-01-12T00:57:46.366Z,10.50
2023-01-12T01:00:18.232Z,10.50
2023-01-12T01:02:47.188Z,10.60
2023-01-12T01:05:17.766Z,10.50
2023-01-12T01:07:46.843Z,10.60
2023-01-12T01:10:16.972Z,10.60
2023-01-12T01:12:45.892Z,10.60
2023-01-12T01:15:13.122Z,10.60
2023-01-12T01:17:40.023Z,10.60
2023-01-12T01:20:09.613Z,10.60
2023-01-12T01:22:38.577Z,10.60
2023-01-12T01:25:08.825Z,10.60
2023-01-12T01:27:35.599Z,10.60
2023-01-12T01:30:04.530Z,10.60
2023-01-12T01:32:31.234Z,10.60
2023-01-12T01:35:02.980Z,10.60
2023-01-12T01:37:29.762Z,10.60
2023-01-12T01:39:56.500Z,10.50
2023-01-12T01:42:33.058Z,10.60
2023-01-12T01:45:01.423Z,10.50
2023-01-12T01:47:39.564Z,10.60
2023-01-12T01:50:16.278Z,10.50
2023-01-12T01:52:50.139Z,10.50
2023-01-12T01:55:22.299Z,10.50
2023-01-12T01:57:56.840Z,10.50
2023-01-12T02:00:24.962Z,10.50
2023-01-12T02:02:52.971Z,10.50
2023-01-12T02:05:24.727Z,10.50
2023-01-12T02:07:53.284Z,10.50
2023-01-12T02:10:23.130Z,10.50
2023-01-12T02:13:09.424Z,10.50
2023-01-12T02:16:12.826Z,10.50
2023-01-12T02:18:57.941Z,10.50
2023-01-12T02:21:36.747Z,10.50
2023-01-12T02:24:49.056Z,10.60
2023-01-12T02:27:29.921Z,10.60
2023-01-12T02:30:09.078Z,10.60
2023-01-12T02:32:50.273Z,10.60
2023-01-12T02:35:16.956Z,10.60
2023-01-12T02:37:54.171Z,10.60
2023-01-12T02:40:37.880Z,10.50
2023-01-12T02:43:23.226Z,10.50
2023-01-12T02:46:04.005Z,10.50
2023-01-12T02:48:38.011Z,10.50
2023-01-12T02:51:27.098Z,10.50
2023-01-12T02:53:59.932Z,10.50
2023-01-12T02:56:43.363Z,10.50
2023-01-12T02:59:33.017Z,10.50
2023-01-12T03:02:12.859Z,10.50
2023-01-12T03:04:42.140Z,10.50
2023-01-12T03:07:15.034Z,10.50
2023-01-12T03:10:18.675Z,10.50
2023-01-12T03:12:45.757Z,10.50
2023-01-12T03:15:18.810Z,10.50
2023-01-12T03:18:14.305Z,10.40
2023-01-12T03:21:08.769Z,10.50
2023-01-12T03:24:17.629Z,10.40
2023-01-12T03:26:52.257Z,10.40
2023-01-12T03:29:35.324Z,10.40
2023-01-12T03:32:04.952Z,10.40
2023-01-12T03:34:33.247Z,10.40
2023-01-12T03:37:19.954Z,10.40
2023-01-12T03:39:52.401Z,10.40
2023-01-12T03:42:29.967Z,10.30
2023-01-12T03:45:22.068Z,10.30
2023-01-12T03:47:55.215Z,10.30
2023-01-12T03:50:27.363Z,10.30
2023-01-12T03:53:00.708Z,10.30
2023-01-12T03:55:30.009Z,10.30
2023-01-12T03:58:00.283Z,10.30
2023-01-12T04:00:29.157Z,10.20
2023-01-12T04:03:12.966Z,10.20
2023-01-12T04:05:41.946Z,10.20
2023-01-12T04:08:09.383Z,10.20
2023-01-12T04:10:36.248Z,10.20
2023-01-12T04:13:03.078Z,10.20
2023-01-12T04:15:37.936Z,10.20
2023-01-12T04:18:05.417Z,10.20
2023-01-12T04:20:34.435Z,10.10
2023-01-12T04:23:01.298Z,10.10
2023-01-12T04:25:31.458Z,10.10
2023-01-12T04:28:02.210Z,10.10
2023-01-12T04:30:32.908Z,10.10
2023-01-12T04:33:01.072Z,10.10
2023-01-12T04:35:30.378Z,10.10
2023-01-12T04:38:05.950Z,10.10
2023-01-12T04:40:34.948Z,10.10
2023-01-12T04:43:07.931Z,10.10
2023-01-12T04:45:42.104Z,10.10
2023-01-12T04:48:11.742Z,10.10
2023-01-12T04:50:39.729Z,10.10
2023-01-12T04:53:08.768Z,10.10
2023-01-12T04:55:40.105Z,10.10
2023-01-12T04:58:09.119Z,10.20
2023-01-12T05:00:38.406Z,10.20
2023-01-12T05:03:07.384Z,10.20
2023-01-12T05:05:35.901Z,10.20
2023-01-12T05:08:23.120Z,10.20
2023-01-12T05:10:55.130Z,10.30
2023-01-12T05:13:22.638Z,10.30
2023-01-12T05:15:51.657Z,10.30
2023-01-12T05:18:18.567Z,10.30
2023-01-12T05:20:47.755Z,10.40
2023-01-12T05:23:14.496Z,10.50
2023-01-12T05:25:44.230Z,10.50
2023-01-12T05:28:13.173Z,10.50
2023-01-12T05:30:39.963Z,10.60
2023-01-12T05:33:15.796Z,10.60
2023-01-12T05:35:45.848Z,10.70
2023-01-12T05:38:13.024Z,10.70
2023-01-12T05:40:39.724Z,10.70
2023-01-12T05:43:24.866Z,10.70
2023-01-12T05:45:53.861Z,10.80
2023-01-12T05:48:23.004Z,10.80
2023-01-12T05:50:52.200Z,10.90
2023-01-12T05:53:21.457Z,10.90
2023-01-12T05:55:48.232Z,10.90
2023-01-12T05:58:15.078Z,11.00
2023-01-12T06:00:47.003Z,11.00
2023-01-12T06:03:16.482Z,11.00
2023-01-12T06:05:43.322Z,11.10
2023-01-12T06:08:11.122Z,11.10
2023-01-12T06:10:39.337Z,11.10
2023-01-12T06:13:24.475Z,11.20
2023-01-12T06:15:54.263Z,11.20
2023-01-12T06:18:23.844Z,11.20
2023-01-12T06:20:55.694Z,11.30
2023-01-12T06:23:22.413Z,11.30
2023-01-12T06:26:04.813Z,11.30
2023-01-12T06:28:34.430Z,11.40
2023-01-12T06:31:04.657Z,11.40
2023-01-12T06:33:34.152Z,11.30
2023-01-12T06:36:04.065Z,11.30
2023-01-12T06:38:37.054Z,11.40
2023-01-12T06:41:27.825Z,11.40
2023-01-12T06:43:54.534Z,11.50
2023-01-12T06:46:21.561Z,11.50
2023-01-12T06:48:50.870Z,11.50
2023-01-12T06:51:17.571Z,11.50
2023-01-12T06:53:46.600Z,11.50
2023-01-12T06:56:13.333Z,11.50
2023-01-12T06:58:46.248Z,11.60
2023-01-12T07:01:15.720Z,11.60
2023-01-12T07:03:42.581Z,11.60
2023-01-12T07:06:09.611Z,11.70
2023-01-12T07:08:36.868Z,11.70
2023-01-12T07:11:12.560Z,11.70
2023-01-12T07:13:39.321Z,11.70
2023-01-12T07:16:08.793Z,11.70
2023-01-12T07:18:40.196Z,11.70
2023-01-12T07:21:08.946Z,11.70
2023-01-12T07:23:37.734Z,11.70
2023-01-12T07:26:04.599Z,11.70
2023-01-12T07:28:33.713Z,11.70
2023-01-12T07:31:06.091Z,11.70
2023-01-12T07:33:38.464Z,11.70
2023-01-12T07:36:08.301Z,11.70
2023-01-12T07:38:35.134Z,11.70
2023-01-12T07:41:03.277Z,11.70
2023-01-12T07:43:33.644Z,11.80
2023-01-12T07:46:00.823Z,11.70
2023-01-12T07:48:27.880Z,11.80
2023-01-12T07:50:54.886Z,11.80
2023-01-12T07:53:23.805Z,11.80
2023-01-12T07:55:50.526Z,11.80
2023-01-12T07:58:19.577Z,11.80
2023-01-12T08:00:48.956Z,11.90
2023-01-12T08:03:15.673Z,11.90
2023-01-12T08:05:47.083Z,11.90
2023-01-12T08:08:14.012Z,11.90
2023-01-12T08:10:50.244Z,11.90
2023-01-12T08:13:18.740Z,11.90
2023-01-12T08:15:49.726Z,11.90
2023-01-12T08:18:23.697Z,11.90
2023-01-12T08:20:51.672Z,11.90
2023-01-12T08:23:32.637Z,12.00
2023-01-12T08:26:04.358Z,12.00
2023-01-12T08:28:43.208Z,12.00
2023-01-12T08:31:14.030Z,12.00
2023-01-12T08:33:42.328Z,12.00
2023-01-12T08:36:16.744Z,11.90
2023-01-12T08:38:43.798Z,11.90
2023-01-12T08:41:29.065Z,11.90
2023-01-12T08:44:01.961Z,11.90
2023-01-12T08:46:50.423Z,11.90
2023-01-12T08:49:21.839Z,11.90
2023-01-12T08:51:52.089Z,11.90
2023-01-12T08:54:20.814Z,12.00
2023-01-12T08:56:50.217Z,12.00
2023-01-12T08:59:19.122Z,12.00
2023-01-12T09:01:49.190Z,12.00
2023-01-12T09:04:16.044Z,12.10
2023-01-12T09:06:48.412Z,12.10
2023-01-12T09:09:19.056Z,12.10
2023-01-12T09:11:49.512Z,12.10
2023-01-12T09:14:17.152Z,12.10
2023-01-12T09:16:45.360Z,12.10
2023-01-12T09:19:12.258Z,12.10
2023-01-12T09:21:44.660Z,12.20
2023-01-12T09:24:14.779Z,12.10
2023-01-12T09:26:44.461Z,12.20
2023-01-12T09:29:14.757Z,12.20
2023-01-12T09:31:44.034Z,12.20
2023-01-12T09:34:16.186Z,12.20
2023-01-12T09:36:43.177Z,12.20
2023-01-12T09:39:26.980Z,12.10
2023-01-12T09:42:13.738Z,12.10
2023-01-12T09:45:04.669Z,12.00
2023-01-12T09:47:31.466Z,12.00
2023-01-12T09:50:28.233Z,12.00
2023-01-12T09:53:19.864Z,11.90
2023-01-12T09:56:08.012Z,11.90
2023-01-12T09:58:58.829Z,11.90
2023-01-12T10:01:29.587Z,11.90
2023-01-12T10:03:59.828Z,11.90
2023-01-12T10:06:27.117Z,11.80
2023-01-12T10:08:57.424Z,11.90
2023-01-12T10:11:49.140Z,11.80
2023-01-12T10:14:27.976Z,11.90
2023-01-12T10:17:06.809Z,11.90
2023-01-12T10:19:39.494Z,11.90
2023-01-12T10:22:36.926Z,11.90
2023-01-12T10:25:18.916Z,11.90
2023-01-12T10:27:50.297Z,11.90
2023-01-12T10:30:18.917Z,12.00
2023-01-12T10:32:46.072Z,12.00
2023-01-12T10:35:15.765Z,12.00
2023-01-12T10:37:51.663Z,12.10
2023-01-12T10:40:35.651Z,12.10
2023-01-12T10:43:20.720Z,12.10
2023-01-12T10:46:15.458Z,12.10
2023-01-12T10:48:47.977Z,12.20
2023-01-12T10:51:35.891Z,12.20
2023-01-12T10:54:18.736Z,12.10
2023-01-12T10:57:00.286Z,12.20
2023-01-12T10:59:32.287Z,12.20
2023-01-12T11:02:17.319Z,12.20
2023-01-12T11:04:49.719Z,12.20
2023-01-12T11:07:22.796Z,12.20
2023-01-12T11:09:49.700Z,12.20
2023-01-12T11:12:29.437Z,12.20
2023-01-12T11:15:07.614Z,12.20
2023-01-12T11:17:54.857Z,12.20
2023-01-12T11:20:51.037Z,12.20
2023-01-12T11:23:41.664Z,12.20
2023-01-12T11:26:18.824Z,12.20
2023-01-12T11:28:50.790Z,12.30
2023-01-12T11:31:31.427Z,12.30
2023-01-12T11:34:13.506Z,12.30
2023-01-12T11:36:50.733Z,12.30
2023-01-12T11:39:23.875Z,12.30
2023-01-12T11:42:19.964Z,12.30
2023-01-12T11:44:57.603Z,12.30
2023-01-12T11:47:31.938Z,12.40
2023-01-12T11:50:06.977Z,12.40
2023-01-12T11:52:34.636Z,12.40
2023-01-12T11:55:04.020Z,12.40
2023-01-12T11:57:33.797Z,12.40
2023-01-12T12:00:14.785Z,12.40
2023-01-12T12:03:05.613Z,12.40
2023-01-12T12:05:58.404Z,12.40
2023-01-12T12:09:02.099Z,12.40
2023-01-12T12:11:58.505Z,12.40
2023-01-12T12:14:28.906Z,12.30
2023-01-12T12:17:19.569Z,12.30
2023-01-12T12:20:14.483Z,12.30
2023-01-12T12:22:50.334Z,12.30
2023-01-12T12:25:35.001Z,12.20
2023-01-12T12:28:07.637Z,12.20
2023-01-12T12:30:55.619Z,12.20
2023-01-12T12:34:03.740Z,12.20
2023-01-12T12:37:14.877Z,12.10
2023-01-12T12:39:55.669Z,12.10
2023-01-12T12:43:02.904Z,12.00
2023-01-12T12:45:43.354Z,12.00
2023-01-12T12:48:14.385Z,12.00
2023-01-12T12:51:08.347Z,11.90
2023-01-12T12:53:47.418Z,11.90
2023-01-12T12:56:17.432Z,11.90
2023-01-12T12:58:49.981Z,11.90
2023-01-12T13:01:25.364Z,11.90
2023-01-12T13:03:56.022Z,11.90
2023-01-12T13:06:38.350Z,11.90
2023-01-12T13:09:27.937Z,11.90
2023-01-12T13:12:01.386Z,11.90
2023-01-12T13:14:39.269Z,11.90
2023-01-12T13:17:27.050Z,11.90
2023-01-12T13:20:13.677Z,11.90
2023-01-12T13:22:51.261Z,11.90
2023-01-12T13:25:20.861Z,11.90
2023-01-12T13:27:59.973Z,11.90
2023-01-12T13:30:29.663Z,11.90
2023-01-12T13:33:17.148Z,11.90
2023-01-12T13:35:46.860Z,11.90
2023-01-12T13:38:22.289Z,11.90
2023-01-12T13:40:56.227Z,11.90
2023-01-12T13:43:30.699Z,11.90
2023-01-12T13:46:20.327Z,11.90
2023-01-12T13:48:53.689Z,11.90
2023-01-12T13:51:38.980Z,11.90
2023-01-12T13:54:10.923Z,11.90
2023-01-12T13:56:38.217Z,11.90
2023-01-12T13:59:15.800Z,11.90
2023-01-12T14:01:47.443Z,12.00
2023-01-12T14:04:19.919Z,12.00
2023-01-12T14:06:59.154Z,12.00
2023-01-12T14:09:44.025Z,11.90
2023-01-12T14:12:29.478Z,11.90
2023-01-12T14:15:23.796Z,12.00
2023-01-12T14:17:53.042Z,12.00
2023-01-12T14:20:25.847Z,12.00
2023-01-12T14:23:22.595Z,12.00
2023-01-12T14:26:16.581Z,11.90
2023-01-12T14:28:47.900Z,12.00
2023-01-12T14:32:04.216Z,12.00
2023-01-12T14:34:37.057Z,11.90
2023-01-12T14:37:07.719Z,11.90
2023-01-12T14:39:41.297Z,11.90
2023-01-12T14:42:37.544Z,11.90
2023-01-12T14:45:44.715Z,11.90
2023-01-12T14:48:24.975Z,11.90
2023-01-12T14:51:21.234Z,11.90
2023-01-12T14:53:54.445Z,11.80
2023-01-12T14:56:44.058Z,11.80
2023-01-12T14:59:19.264Z,11.80
2023-01-12T15:01:46.684Z,11.90
2023-01-12T15:04:25.183Z,11.90
2023-01-12T15:07:06.392Z,11.90
2023-01-12T15:09:37.111Z,11.80
2023-01-12T15:12:30.243Z,11.80
2023-01-12T15:15:54.524Z,11.80
2023-01-12T15:18:42.408Z,11.80
2023-01-12T15:21:28.048Z,11.80
2023-01-12T15:24:13.517Z,11.80
2023-01-12T15:26:49.320Z,11.80
2023-01-12T15:29:23.052Z,11.80
2023-01-12T15:31:49.951Z,11.70
2023-01-12T15:34:19.147Z,11.80
2023-01-12T15:36:45.953Z,11.80
2023-01-12T15:39:16.050Z,11.80
2023-01-12T15:42:01.445Z,11.80
2023-01-12T15:44:31.068Z,11.80
2023-01-12T15:46:57.964Z,11.80
2023-01-12T15:49:26.994Z,11.80
2023-01-12T15:51:53.969Z,11.80
2023-01-12T15:54:21.672Z,11.80
2023-01-12T15:56:57.279Z,11.80
2023-01-12T15:59:28.706Z,11.70
2023-01-12T16:01:55.615Z,11.80
2023-01-12T16:07:18.553Z,11.80
2023-01-12T16:09:50.580Z,11.80
2023-01-12T16:12:22.413Z,11.80
2023-01-12T16:14:49.451Z,11.80
2023-01-12T16:17:16.432Z,11.80
2023-01-12T16:19:43.799Z,11.80
2023-01-12T16:22:21.127Z,11.80
2023-01-12T16:24:48.889Z,11.80
2023-01-12T16:27:16.652Z,11.80
2023-01-12T16:29:46.218Z,11.80
2023-01-12T16:32:15.749Z,11.80
2023-01-12T16:34:42.640Z,11.80
2023-01-12T16:37:14.419Z,11.80
2023-01-12T16:39:42.002Z,11.80
2023-01-12T16:42:11.720Z,11.80
2023-01-12T16:44:41.632Z,11.80
2023-01-12T16:47:13.341Z,11.80
2023-01-12T16:49:40.172Z,11.80
2023-01-12T16:52:07.995Z,11.80
2023-01-12T16:54:42.549Z,11.70
2023-01-12T16:57:09.988Z,11.70
2023-01-12T16:59:36.689Z,11.80
2023-01-12T17:02:07.929Z,11.80
2023-01-12T17:04:35.384Z,11.80
2023-01-12T17:07:04.932Z,11.80
2023-01-12T17:09:34.028Z,11.80
2023-01-12T17:12:00.923Z,11.70
2023-01-12T17:14:29.185Z,11.80
2023-01-12T17:16:57.455Z,11.80
2023-01-12T17:19:27.780Z,11.70
2023-01-12T17:21:58.279Z,11.80
2023-01-12T17:24:27.471Z,11.80
2023-01-12T17:26:55.206Z,11.80
2023-01-12T17:29:22.604Z,11.80
2023-01-12T17:31:49.573Z,11.80
2023-01-12T17:34:16.313Z,11.80
2023-01-12T17:36:43.563Z,11.90
2023-01-12T17:39:10.253Z,11.90
2023-01-12T17:41:55.651Z,11.80
2023-01-12T17:44:22.296Z,11.90
2023-01-12T17:46:50.158Z,11.90
2023-01-12T17:49:17.074Z,11.90
2023-01-12T17:51:43.713Z,11.90
2023-01-12T17:54:12.006Z,11.90
2023-01-12T17:56:38.889Z,11.90
2023-01-12T17:59:05.850Z,11.80
2023-01-12T18:01:33.997Z,11.80
2023-01-12T18:04:00.977Z,11.80
2023-01-12T18:06:27.762Z,11.80
2023-01-12T18:08:59.562Z,11.80
2023-01-12T18:11:27.191Z,11.80
2023-01-12T18:13:54.252Z,11.80
2023-01-12T18:16:21.560Z,11.80
2023-01-12T18:18:48.302Z,11.80
2023-01-12T18:21:16.388Z,11.80
2023-01-12T18:23:43.566Z,11.80
2023-01-12T18:26:14.755Z,11.80
2023-01-12T18:28:41.831Z,11.80
2023-01-12T18:31:17.472Z,11.80
2023-01-12T18:33:45.358Z,11.80
2023-01-12T18:36:16.152Z,11.80
2023-01-12T18:38:42.851Z,11.80
2023-01-12T18:41:28.769Z,11.80
2023-01-12T18:43:55.548Z,11.80
2023-01-12T18:46:43.412Z,11.80
2023-01-12T18:49:10.098Z,11.80
2023-01-12T18:51:55.375Z,11.80
2023-01-12T18:54:27.201Z,11.70
2023-01-12T18:56:54.140Z,11.80
2023-01-12T18:59:21.601Z,11.80
2023-01-12T19:01:50.820Z,11.80
2023-01-12T19:04:30.766Z,11.70
2023-01-12T19:07:01.050Z,11.70
2023-01-12T19:09:37.379Z,11.80
2023-01-12T19:12:09.464Z,11.80
2023-01-12T19:14:54.864Z,11.80
2023-01-12T19:17:29.572Z,11.80
2023-01-12T19:19:59.651Z,11.80
2023-01-12T19:22:45.690Z,11.80
2023-01-12T19:25:32.299Z,11.70
2023-01-12T19:28:17.738Z,11.70
2023-01-12T19:30:48.114Z,11.70
2023-01-12T19:33:17.380Z,11.70
2023-01-12T19:35:44.760Z,11.70
2023-01-12T19:38:12.460Z,11.70
2023-01-12T19:40:51.151Z,11.70
2023-01-12T19:43:21.048Z,11.70
2023-01-12T19:45:51.851Z,11.70
2023-01-12T19:48:19.715Z,11.70
2023-01-12T19:50:49.372Z,11.70
2023-01-12T19:53:19.041Z,11.60
2023-01-12T19:55:46.332Z,11.60
2023-01-12T19:58:13.186Z,11.60
2023-01-12T20:00:45.075Z,11.60
2023-01-12T20:03:22.306Z,11.60
2023-01-12T20:05:52.890Z,11.60
2023-01-12T20:08:24.526Z,11.50
2023-01-12T20:10:55.596Z,11.50
2023-01-12T20:13:26.951Z,11.50
2023-01-12T20:15:57.693Z,11.50
2023-01-12T20:18:27.647Z,11.40
2023-01-12T20:20:58.639Z,11.40
2023-01-12T20:23:25.347Z,11.40
2023-01-12T20:25:52.130Z,11.30
2023-01-12T20:28:19.063Z,11.40
2023-01-12T20:30:45.772Z,11.40
2023-01-12T20:33:14.818Z,11.40
2023-01-12T20:35:48.010Z,11.40
2023-01-12T20:38:15.627Z,11.40
2023-01-12T20:40:43.345Z,11.40
2023-01-12T20:43:10.042Z,11.40
2023-01-12T20:45:39.283Z,11.40
2023-01-12T20:48:08.403Z,11.30
2023-01-12T20:50:35.129Z,11.30
2023-01-12T20:53:01.816Z,11.30
2023-01-12T20:55:31.403Z,11.30
2023-01-12T20:58:04.210Z,11.30
2023-01-12T21:00:31.986Z,11.30
2023-01-12T21:03:01.147Z,11.30
2023-01-12T21:05:27.842Z,11.30
2023-01-12T21:08:07.168Z,11.30
2023-01-12T21:10:34.938Z,11.30
2023-01-12T21:13:01.704Z,11.30
2023-01-12T21:15:28.426Z,11.30
2023-01-12T21:17:55.714Z,11.30
2023-01-12T21:20:24.839Z,11.20
2023-01-12T21:22:56.892Z,11.20
2023-01-12T21:25:27.809Z,11.20
2023-01-12T21:28:00.066Z,11.20
2023-01-12T21:30:26.747Z,11.10
2023-01-12T21:32:55.031Z,11.10
2023-01-12T21:35:21.739Z,11.10
2023-01-12T21:37:48.610Z,11.10
2023-01-12T21:40:20.736Z,11.10
2023-01-12T21:43:06.180Z,11.10
2023-01-12T21:45:36.879Z,11.00
2023-01-12T21:48:04.241Z,11.00
2023-01-12T21:50:34.273Z,11.00
2023-01-12T21:53:02.682Z,11.00
2023-01-12T21:55:33.364Z,11.00
2023-01-12T21:58:02.959Z,11.00
2023-01-12T22:00:32.624Z,10.90
2023-01-12T22:02:59.272Z,10.90
2023-01-12T22:05:28.446Z,10.90
2023-01-12T22:07:55.383Z,10.80
2023-01-12T22:10:30.512Z,10.80
2023-01-12T22:13:02.710Z,10.80
2023-01-12T22:15:30.012Z,10.70
2023-01-12T22:17:56.879Z,10.70
2023-01-12T22:20:24.320Z,10.70
2023-01-12T22:22:51.550Z,10.60
2023-01-12T22:25:18.419Z,10.60
2023-01-12T22:27:48.027Z,10.60
2023-01-12T22:30:19.125Z,10.60
2023-01-12T22:32:45.829Z,10.50
2023-01-12T22:35:15.933Z,10.50
2023-01-12T22:37:42.802Z,10.50
2023-01-12T22:40:10.510Z,10.50
2023-01-12T22:42:55.732Z,10.50
2023-01-12T22:45:24.558Z,10.50
2023-01-12T22:47:55.091Z,10.50
2023-01-12T22:50:24.723Z,10.50
2023-01-12T22:52:55.844Z,10.50
2023-01-12T22:55:23.246Z,10.50
2023-01-12T22:57:52.374Z,10.50
2023-01-12T23:00:19.617Z,10.40
2023-01-12T23:03:02.060Z,10.40
2023-01-12T23:05:31.983Z,10.40
2023-01-12T23:07:58.895Z,10.30
2023-01-12T23:10:30.865Z,10.30
2023-01-12T23:13:17.018Z,10.30
2023-01-12T23:15:49.271Z,10.20
2023-01-12T23:18:22.260Z,10.20
2023-01-12T23:20:49.296Z,10.20
2023-01-12T23:23:18.989Z,10.20
2023-01-12T23:25:48.155Z,10.10
2023-01-12T23:28:15.370Z,10.10
2023-01-12T23:30:45.151Z,10.10
2023-01-12T23:33:11.865Z,10.10
2023-01-12T23:35:41.549Z,10.00
2023-01-12T23:38:12.972Z,10.10
2023-01-12T23:40:39.631Z,10.00
2023-01-12T23:43:08.470Z,10.00
2023-01-12T23:45:37.552Z,10.00
2023-01-12T23:48:07.737Z,10.00
2023-01-12T23:50:39.891Z,10.00
2023-01-12T23:53:11.479Z,9.90
2023-01-12T23:55:39.383Z,9.90
2023-01-12T23:58:06.488Z,9.90
